Time;durP1;ratioP1;P1;durP2;ratioP2;P2;SDS_P1;SDS_P2;PMS_P1;PMS_P2;Temp;Humidity;BMP_temperature;BMP_pressure;BME280_temperature;BME280_humidity;BME280_pressure;Samples;Min_cycle;Max_cycle;Signal;HPM_P1;HPM_P2
2021/12/01 00:00:47;;;;;;;39.57;22.80;;;;;;;4.63;100.00;99848.88;5006365;28;20307;-54
2021/12/01 00:03:13;;;;;;;38.97;23.07;;;;;;;4.60;100.00;99828.38;5008238;28;20256;-53
2021/12/01 00:05:39;;;;;;;18.27;12.83;;;;;;;4.56;100.00;99832.59;5007052;28;20702;-54
2021/12/01 00:08:04;;;;;;;19.17;13.93;;;;;;;4.56;100.00;99825.78;5008960;28;20212;-54
2021/12/01 00:10:34;;;;;;;9.10;7.43;;;;;;;4.60;100.00;99818.13;5004800;28;20222;-53
2021/12/01 00:13:03;;;;;;;3.40;3.10;;;;;;;4.59;100.00;99806.97;5010517;28;20647;-53
2021/12/01 00:15:29;;;;;;;1.70;1.60;;;;;;;4.60;100.00;99801.00;5020589;28;20279;-54
2021/12/01 00:17:54;;;;;;;1.90;1.70;;;;;;;4.60;100.00;99798.44;5025847;28;20278;-53
2021/12/01 00:20:20;;;;;;;2.57;1.40;;;;;;;4.64;100.00;99794.19;5013685;28;20216;-52
2021/12/01 00:22:47;;;;;;;1.40;1.30;;;;;;;4.60;100.00;99795.88;5009130;28;20192;-53
2021/12/01 00:25:15;;;;;;;2.90;1.40;;;;;;;4.64;100.00;99791.63;5007593;28;20584;-53
2021/12/01 00:27:42;;;;;;;1.20;1.10;;;;;;;4.65;100.00;99781.41;5008563;28;20216;-52
2021/12/01 00:30:09;;;;;;;1.53;1.30;;;;;;;4.68;100.00;99772.88;5019218;28;20199;-53
2021/12/01 00:32:35;;;;;;;1.53;1.20;;;;;;;4.70;100.00;99763.50;5009043;28;20202;-52
2021/12/01 00:35:03;;;;;;;1.43;0.90;;;;;;;4.71;100.00;99754.97;5009524;28;20187;-52
2021/12/01 00:37:28;;;;;;;1.63;1.13;;;;;;;4.71;100.00;99749.84;5007264;28;20497;-52
2021/12/01 00:39:54;;;;;;;1.33;1.23;;;;;;;4.73;100.00;99728.47;5008266;28;20187;-52
2021/12/01 00:42:19;;;;;;;1.33;1.23;;;;;;;4.74;100.00;99749.84;5010976;28;20195;-53
2021/12/01 00:44:47;;;;;;;1.43;1.13;;;;;;;4.73;100.00;99732.75;5005941;28;20180;-52
2021/12/01 00:47:14;;;;;;;1.97;1.20;;;;;;;4.73;100.00;99728.47;5011140;28;20288;-52
2021/12/01 00:49:40;;;;;;;1.30;1.20;;;;;;;4.75;100.00;99712.25;5006467;28;20188;-53
2021/12/01 00:52:07;;;;;;;1.60;1.23;;;;;;;4.77;100.00;99708.00;5007044;28;20195;-52
2021/12/01 00:54:32;;;;;;;1.03;0.87;;;;;;;4.77;100.00;99718.25;5006167;28;20234;-53
2021/12/01 00:56:57;;;;;;;1.30;1.10;;;;;;;4.79;100.00;99716.56;5007028;28;20209;-51
2021/12/01 00:59:23;;;;;;;1.47;1.23;;;;;;;4.80;100.00;99708.84;5007946;28;20715;-53
2021/12/01 01:01:50;;;;;;;2.00;1.80;;;;;;;4.83;100.00;99700.34;5008214;28;20245;-53
2021/12/01 01:04:16;;;;;;;1.97;1.37;;;;;;;4.84;100.00;99705.47;5006837;28;20237;-52
2021/12/01 01:06:42;;;;;;;1.93;1.60;;;;;;;4.84;100.00;99704.63;5009673;28;20288;-52
2021/12/01 01:09:09;;;;;;;1.87;1.67;;;;;;;4.86;100.00;99708.03;5007470;28;20188;-55
2021/12/01 01:17:07;;;;;;;2.77;1.87;;;;;;;4.86;100.00;99695.22;5009773;28;20722;-52
2021/12/01 01:19:34;;;;;;;2.27;1.47;;;;;;;4.87;100.00;99689.22;5007697;28;20193;-54
2021/12/01 01:22:00;;;;;;;2.00;1.47;;;;;;;4.90;100.00;99690.97;5008902;28;20212;-54
2021/12/01 01:24:27;;;;;;;3.90;1.73;;;;;;;4.91;100.00;99687.56;5004790;28;20658;-52
2021/12/01 01:26:53;;;;;;;1.83;1.63;;;;;;;4.92;100.00;99686.69;5007292;28;20230;-51
2021/12/01 01:29:21;;;;;;;1.80;1.40;;;;;;;4.91;100.00;99677.31;5007126;28;20569;-53
2021/12/01 01:31:50;;;;;;;1.83;1.70;;;;;;;4.91;100.00;99672.19;5008231;28;20661;-52
2021/12/01 01:34:16;;;;;;;2.43;1.40;;;;;;;4.94;100.00;99669.59;5010684;28;20203;-53
2021/12/01 01:36:41;;;;;;;2.13;1.77;;;;;;;4.92;100.00;99672.16;5004153;28;20654;-52
2021/12/01 01:39:07;;;;;;;3.23;1.40;;;;;;;4.96;100.00;99676.47;5009227;28;20195;-54
2021/12/01 01:41:33;;;;;;;1.97;1.40;;;;;;;4.95;100.00;99668.75;5009102;28;20289;-53
2021/12/01 01:43:58;;;;;;;1.57;1.47;;;;;;;4.94;100.00;99664.47;5008838;28;20238;-53
2021/12/01 01:46:31;;;;;;;2.00;1.43;;;;;;;4.95;100.00;99663.63;5017944;28;20216;-53
2021/12/01 01:49:05;;;;;;;1.60;1.50;;;;;;;4.97;100.00;99670.50;5008938;28;20192;-53
2021/12/01 01:51:31;;;;;;;2.97;1.57;;;;;;;4.92;100.00;99663.59;5025036;28;20191;-52
2021/12/01 01:53:57;;;;;;;1.77;1.40;;;;;;;4.92;100.00;99663.59;5015674;28;20254;-51
2021/12/01 01:56:23;;;;;;;2.20;1.77;;;;;;;4.94;100.00;99659.34;5019417;28;20205;-54
2021/12/01 01:58:49;;;;;;;1.23;1.13;;;;;;;4.96;100.00;99661.09;5023041;28;20640;-52
2021/12/01 02:01:34;;;;;;;1.53;1.37;;;;;;;4.93;100.00;99661.06;5006499;28;20226;-52
2021/12/01 02:04:00;;;;;;;1.87;1.40;;;;;;;4.97;100.00;99649.97;5009873;28;20664;-54
2021/12/01 02:06:26;;;;;;;2.10;1.60;;;;;;;4.97;100.00;99643.97;5013700;28;20250;-51
2021/12/01 02:08:54;;;;;;;1.50;1.30;;;;;;;4.97;100.00;99643.97;5010206;28;20184;-53
2021/12/01 02:11:21;;;;;;;1.63;1.33;;;;;;;4.96;100.00;99640.56;5007077;28;20355;-54
2021/12/01 02:13:48;;;;;;;2.40;1.30;;;;;;;4.99;100.00;99629.47;5011191;28;20236;-51
2021/12/01 02:16:15;;;;;;;1.73;1.33;;;;;;;4.98;100.00;99615.78;5011671;28;20208;-53
2021/12/01 02:18:41;;;;;;;3.60;1.40;;;;;;;5.00;100.00;99624.31;5012413;28;20188;-51
2021/12/01 02:21:13;;;;;;;2.17;1.40;;;;;;;5.03;100.00;99613.22;5009692;28;20188;-53
2021/12/01 02:23:43;;;;;;;1.60;1.40;;;;;;;5.03;100.00;99615.81;5008529;28;20504;-53
2021/12/01 02:26:10;;;;;;;1.30;1.17;;;;;;;5.03;100.00;99611.50;5006335;28;20223;-53
2021/12/01 02:28:38;;;;;;;1.83;1.50;;;;;;;5.06;100.00;99597.88;5012702;28;20682;-51
2021/12/01 02:31:04;;;;;;;1.53;1.20;;;;;;;5.08;100.00;99590.16;5018625;28;20546;-54
2021/12/01 02:33:29;;;;;;;1.60;1.40;;;;;;;5.09;100.00;99582.44;5016748;28;20185;-54
2021/12/01 02:35:55;;;;;;;1.60;1.30;;;;;;;5.08;100.00;99583.31;5012861;28;20186;-54
2021/12/01 02:38:21;;;;;;;1.87;1.40;;;;;;;5.04;100.00;99576.47;5006232;28;20189;-53
2021/12/01 02:40:47;;;;;;;2.40;1.40;;;;;;;5.06;100.00;99572.22;5011237;28;20641;-54
2021/12/01 02:43:13;;;;;;;2.60;1.37;;;;;;;5.05;100.00;99555.13;5010786;28;20193;-53
2021/12/01 02:45:40;;;;;;;1.83;1.30;;;;;;;5.06;100.00;99553.38;5011512;28;20506;-53
2021/12/01 02:48:11;;;;;;;1.90;1.27;;;;;;;5.06;100.00;99545.69;5014809;28;20298;-53
2021/12/01 02:50:37;;;;;;;2.50;1.20;;;;;;;5.07;100.00;99542.28;5014016;28;20188;-53
2021/12/01 02:53:02;;;;;;;1.30;1.20;;;;;;;5.05;100.00;99529.47;5008931;28;20254;-52
2021/12/01 02:55:30;;;;;;;1.67;1.40;;;;;;;5.03;100.00;99526.88;5008973;28;20523;-51
2021/12/01 02:57:59;;;;;;;3.10;1.60;;;;;;;5.02;100.00;99511.50;5008764;28;20217;-52
2021/12/01 03:00:24;;;;;;;1.73;1.40;;;;;;;5.03;100.00;99511.50;5006655;28;20191;-53
2021/12/01 03:02:52;;;;;;;1.77;1.50;;;;;;;5.06;100.00;99512.34;5012077;28;20584;-52
2021/12/01 03:05:19;;;;;;;1.30;1.10;;;;;;;5.06;100.00;99502.97;5007485;28;21048;-52
2021/12/01 03:07:45;;;;;;;2.57;1.47;;;;;;;5.06;100.00;99500.41;5011995;28;20231;-54
2021/12/01 03:10:12;;;;;;;1.80;1.63;;;;;;;5.07;100.00;99496.97;5014154;28;20188;-53
2021/12/01 03:12:39;;;;;;;2.60;1.47;;;;;;;5.08;100.00;99487.56;5012817;28;20185;-52
2021/12/01 03:15:08;;;;;;;1.23;1.13;;;;;;;5.10;100.00;99486.72;5008462;28;20184;-54
2021/12/01 03:17:34;;;;;;;2.90;1.70;;;;;;;5.12;100.00;99489.28;5010476;28;20253;-54
2021/12/01 03:20:00;;;;;;;1.90;1.30;;;;;;;5.10;100.00;99484.13;5007761;28;20196;-51
2021/12/01 03:22:26;;;;;;;1.63;1.53;;;;;;;5.11;100.00;99485.84;5013397;28;20716;-54
2021/12/01 03:24:52;;;;;;;2.43;1.50;;;;;;;5.11;100.00;99482.44;5011173;28;20225;-53
2021/12/01 03:27:18;;;;;;;1.70;1.60;;;;;;;5.14;100.00;99472.19;5019524;28;20222;-53
2021/12/01 03:29:50;;;;;;;1.50;1.40;;;;;;;5.14;100.00;99485.03;5010101;28;20188;-52
2021/12/01 03:32:17;;;;;;;1.77;1.53;;;;;;;5.15;100.00;99474.75;5009309;28;20231;-53
2021/12/01 03:34:43;;;;;;;1.40;1.30;;;;;;;5.18;100.00;99476.44;5005465;28;20544;-53
2021/12/01 03:37:10;;;;;;;1.70;1.50;;;;;;;5.20;100.00;99474.75;5008906;28;20212;-53
2021/12/01 03:39:36;;;;;;;1.60;1.50;;;;;;;5.23;100.00;99461.06;5007241;28;20207;-54
2021/12/01 03:42:02;;;;;;;1.87;1.50;;;;;;;5.21;100.00;99470.47;5008171;28;20664;-53
2021/12/01 03:44:27;;;;;;;1.50;1.40;;;;;;;5.24;100.00;99468.75;5012867;28;20200;-53
2021/12/01 03:46:53;;;;;;;2.63;1.40;;;;;;;5.24;100.00;99467.91;5007603;28;20220;-53
2021/12/01 03:49:19;;;;;;;2.80;1.73;;;;;;;5.23;100.00;99466.19;5009569;28;20187;-54
2021/12/01 03:51:44;;;;;;;2.33;1.30;;;;;;;5.25;100.00;99459.34;5008457;28;20184;-52
2021/12/01 03:54:10;;;;;;;2.83;1.50;;;;;;;5.25;100.00;99455.09;5007636;28;20249;-54
2021/12/01 03:56:35;;;;;;;1.70;1.50;;;;;;;5.26;100.00;99456.78;5020194;28;20218;-53
2021/12/01 03:59:02;;;;;;;1.50;1.27;;;;;;;5.26;100.00;99435.41;5005095;28;20250;-54
2021/12/01 04:01:28;;;;;;;1.63;1.30;;;;;;;5.30;100.00;99425.13;5009792;28;21019;-53
2021/12/01 04:03:53;;;;;;;1.80;1.30;;;;;;;5.31;100.00;99415.75;5006883;28;20198;-52
2021/12/01 04:06:19;;;;;;;2.40;1.27;;;;;;;5.31;100.00;99408.03;5008865;28;20318;-53
2021/12/01 04:08:45;;;;;;;2.63;1.30;;;;;;;5.31;100.00;99413.16;5014024;28;20193;-52
2021/12/01 04:11:10;;;;;;;0.83;0.83;;;;;;;5.31;100.00;99408.88;4999484;28;20212;-53
2021/12/01 04:13:35;;;;;;;2.73;1.20;;;;;;;5.31;100.00;99401.19;5010706;28;20270;-52
2021/12/01 04:16:01;;;;;;;1.20;1.10;;;;;;;5.33;100.00;99388.38;5014563;28;20705;-52
2021/12/01 04:18:26;;;;;;;1.90;1.43;;;;;;;5.34;100.00;99375.53;5008228;28;20917;-51
2021/12/01 04:20:52;;;;;;;1.43;1.10;;;;;;;5.35;100.00;99378.97;5006603;28;20655;-53
2021/12/01 04:23:17;;;;;;;1.87;1.20;;;;;;;5.34;100.00;99367.00;4999235;28;20212;-51
2021/12/01 04:25:43;;;;;;;1.10;1.00;;;;;;;5.36;100.00;99360.16;5009007;28;20218;-53
2021/12/01 04:28:09;;;;;;;1.10;1.00;;;;;;;5.38;100.00;99360.97;5011488;28;20239;-52
2021/12/01 04:30:34;;;;;;;3.90;1.40;;;;;;;5.42;100.00;99354.97;5004492;28;20218;-52
2021/12/01 04:32:59;;;;;;;1.27;1.00;;;;;;;5.42;100.00;99339.59;5011899;28;20179;-53
2021/12/01 04:35:27;;;;;;;1.37;0.90;;;;;;;5.45;100.00;99337.00;5001869;28;20188;-53
2021/12/01 04:37:54;;;;;;;1.07;0.80;;;;;;;5.47;100.00;99327.59;5004529;28;20247;-52
2021/12/01 04:40:20;;;;;;;0.80;0.77;;;;;;;5.48;100.00;99328.44;5009190;28;20188;-52
2021/12/01 04:42:45;;;;;;;1.70;0.80;;;;;;;5.49;100.00;99332.72;5011284;28;20617;-51
2021/12/01 04:45:16;;;;;;;0.80;0.80;;;;;;;5.52;100.00;99324.16;5007706;28;20218;-53
2021/12/01 04:47:43;;;;;;;1.87;0.90;;;;;;;5.55;100.00;99332.72;5009922;28;20216;-52
2021/12/01 04:50:10;;;;;;;1.40;0.90;;;;;;;5.56;100.00;99320.72;5009318;28;20251;-53
2021/12/01 04:52:36;;;;;;;0.70;0.70;;;;;;;5.60;100.00;99301.88;5040464;28;20215;-53
2021/12/01 04:55:02;;;;;;;1.80;0.80;;;;;;;5.61;100.00;99307.00;5033396;28;20211;-54
2021/12/01 04:57:28;;;;;;;0.97;0.80;;;;;;;5.66;100.00;99301.88;5010453;28;20204;-53
2021/12/01 04:59:53;;;;;;;0.80;0.60;;;;;;;5.67;100.00;99311.28;5011953;28;20299;-51
2021/12/01 05:02:19;;;;;;;1.13;0.60;;;;;;;5.69;100.00;99303.56;5008305;28;20230;-53
2021/12/01 05:04:44;;;;;;;1.23;0.77;;;;;;;5.71;100.00;99299.28;5007113;28;20195;-53
2021/12/01 05:07:10;;;;;;;1.20;0.80;;;;;;;5.74;100.00;99300.09;5009875;28;20213;-53
2021/12/01 05:09:36;;;;;;;1.17;0.80;;;;;;;5.78;100.00;99298.38;5016380;28;20191;-53
2021/12/01 05:12:01;;;;;;;0.67;0.60;;;;;;;5.78;100.00;99301.78;5005129;28;20208;-53
2021/12/01 05:14:28;;;;;;;0.90;0.80;;;;;;;5.82;100.00;99296.66;5006044;28;20191;-53
2021/12/01 05:16:54;;;;;;;1.40;0.93;;;;;;;5.81;100.00;99295.78;5010013;28;20205;-53
2021/12/01 05:19:20;;;;;;;1.33;0.53;;;;;;;5.81;100.00;99282.94;5012008;28;20193;-54
2021/12/01 05:21:45;;;;;;;0.80;0.70;;;;;;;5.83;100.00;99281.22;5008521;28;20200;-53
2021/12/01 05:24:11;;;;;;;1.17;0.80;;;;;;;5.85;100.00;99270.94;5010031;28;20207;-53
2021/12/01 05:26:37;;;;;;;0.80;0.60;;;;;;;5.87;100.00;99252.09;5015454;28;20228;-51
2021/12/01 05:29:03;;;;;;;1.20;0.83;;;;;;;5.86;100.00;99237.56;5012146;28;20208;-54
2021/12/01 05:31:29;;;;;;;1.27;0.60;;;;;;;5.88;100.00;99235.84;5011886;28;20193;-53
2021/12/01 05:33:54;;;;;;;1.40;0.80;;;;;;;5.86;100.00;99224.72;5011394;28;20655;-53
2021/12/01 05:36:20;;;;;;;0.93;0.90;;;;;;;5.86;100.00;99227.28;5012100;28;20209;-51
2021/12/01 05:38:45;;;;;;;0.93;0.60;;;;;;;5.88;100.00;99229.84;5012126;28;20208;-52
2021/12/01 05:41:10;;;;;;;0.80;0.70;;;;;;;5.87;100.00;99215.28;5010673;28;20193;-52
2021/12/01 05:43:36;;;;;;;0.77;0.67;;;;;;;5.87;100.00;99205.03;5012617;28;20671;-52
2021/12/01 05:46:02;;;;;;;2.03;0.67;;;;;;;5.88;100.00;99205.03;5009691;28;20691;-55
2021/12/01 05:48:27;;;;;;;0.90;0.80;;;;;;;5.87;100.00;99205.03;5011137;28;20188;-54
2021/12/01 05:50:53;;;;;;;0.90;0.77;;;;;;;5.86;100.00;99198.19;5012707;28;20194;-55
2021/12/01 05:53:18;;;;;;;1.13;0.60;;;;;;;5.86;100.00;99193.91;5006714;28;20196;-53
2021/12/01 05:55:44;;;;;;;1.20;0.80;;;;;;;5.85;100.00;99178.50;5009139;28;20621;-53
2021/12/01 05:58:09;;;;;;;2.70;1.10;;;;;;;5.85;100.00;99186.19;5008196;28;20239;-53
2021/12/01 06:00:35;;;;;;;1.87;0.83;;;;;;;5.85;100.00;99183.63;4997122;28;20219;-52
2021/12/01 06:03:01;;;;;;;2.00;0.87;;;;;;;5.87;100.00;99179.34;4993797;28;20201;-52
2021/12/01 06:05:27;;;;;;;1.20;0.97;;;;;;;5.88;100.00;99175.91;4999968;28;20301;-53
2021/12/01 06:07:53;;;;;;;1.17;0.60;;;;;;;5.88;100.00;99171.66;5001146;28;20621;-52
2021/12/01 06:10:18;;;;;;;0.70;0.60;;;;;;;5.90;100.00;99175.03;5001451;28;20288;-53
2021/12/01 06:12:45;;;;;;;1.27;0.83;;;;;;;5.92;100.00;99164.75;5000212;28;20215;-53
2021/12/01 06:15:11;;;;;;;2.07;0.93;;;;;;;5.96;100.00;99169.00;4998254;28;20209;-50
2021/12/01 06:17:37;;;;;;;1.07;0.60;;;;;;;5.97;100.00;99145.03;4995034;28;20220;-54
2021/12/01 06:20:04;;;;;;;1.00;0.80;;;;;;;6.01;100.00;99149.28;5008182;28;20201;-52
2021/12/01 06:22:30;;;;;;;1.03;0.57;;;;;;;6.01;100.00;99144.16;5001660;28;20565;-53
2021/12/01 06:24:55;;;;;;;1.50;0.80;;;;;;;6.03;100.00;99137.28;5004180;28;20205;-51
2021/12/01 06:27:22;;;;;;;1.60;0.80;;;;;;;6.04;100.00;99122.75;5027083;28;20253;-56
2021/12/01 06:29:48;;;;;;;0.40;0.40;;;;;;;6.06;100.00;99134.72;5031048;28;20193;-52
2021/12/01 06:32:13;;;;;;;1.43;0.67;;;;;;;6.10;100.00;99135.53;4993364;28;20538;-52
2021/12/01 06:34:38;;;;;;;0.97;0.67;;;;;;;6.15;100.00;99122.63;4988277;28;20191;-50
2021/12/01 06:37:04;;;;;;;1.53;0.73;;;;;;;6.16;100.00;99120.06;4988488;28;20245;-54
2021/12/01 06:39:29;;;;;;;1.90;0.67;;;;;;;6.18;100.00;99109.75;4997677;28;20188;-55
2021/12/01 06:41:54;;;;;;;0.63;0.63;;;;;;;6.20;100.00;99114.00;5008582;28;20183;-53
2021/12/01 06:44:21;;;;;;;1.73;0.77;;;;;;;6.24;100.00;99107.97;5001939;28;20213;-53
2021/12/01 06:46:46;;;;;;;1.40;0.50;;;;;;;6.28;100.00;99100.25;4996575;28;20276;-52
2021/12/01 06:49:12;;;;;;;1.27;0.63;;;;;;;6.32;100.00;99094.22;5017921;28;20190;-52
2021/12/01 06:51:37;;;;;;;1.90;0.77;;;;;;;6.33;100.00;99095.91;5004197;28;20190;-52
2021/12/01 06:54:03;;;;;;;0.90;0.60;;;;;;;6.37;100.00;99095.00;4997176;28;20195;-54
2021/12/01 06:56:28;;;;;;;2.50;0.60;;;;;;;6.40;100.00;99080.41;5011905;28;20391;-53
2021/12/01 06:58:53;;;;;;;0.90;0.53;;;;;;;6.43;100.00;99079.53;5019110;28;20580;-52
2021/12/01 07:01:19;;;;;;;1.30;0.70;;;;;;;6.43;100.00;99065.84;5083044;28;20194;-52
2021/12/01 07:03:44;;;;;;;1.63;0.40;;;;;;;6.44;100.00;99054.66;5004466;28;20290;-53
2021/12/01 07:06:10;;;;;;;1.70;0.60;;;;;;;6.47;100.00;99057.19;5007238;28;20704;-53
2021/12/01 07:08:36;;;;;;;0.60;0.50;;;;;;;6.46;100.00;99053.78;5006775;28;20182;-52
2021/12/01 07:11:03;;;;;;;1.10;0.70;;;;;;;6.46;100.00;99047.78;4995899;28;20227;-53
2021/12/01 07:13:32;;;;;;;0.43;0.40;;;;;;;6.48;100.00;99028.06;5002382;28;20193;-52
2021/12/01 07:15:57;;;;;;;0.60;0.60;;;;;;;6.50;100.00;99026.31;5007434;28;20201;-55
2021/12/01 07:18:23;;;;;;;2.13;0.60;;;;;;;6.51;100.00;99025.47;5014430;28;20198;-53
2021/12/01 07:20:48;;;;;;;0.97;0.73;;;;;;;6.53;100.00;99006.56;5022592;28;20200;-53
2021/12/01 07:23:14;;;;;;;0.90;0.70;;;;;;;6.58;100.00;99006.50;5015049;28;20253;-53
2021/12/01 07:25:39;;;;;;;0.80;0.60;;;;;;;6.63;100.00;98998.75;5033583;28;20252;-54
2021/12/01 07:28:05;;;;;;;0.93;0.60;;;;;;;6.69;100.00;98996.94;5018744;28;20218;-52
2021/12/01 07:30:32;;;;;;;0.30;0.30;;;;;;;6.73;100.00;98990.03;5005249;28;20195;-53
2021/12/01 07:32:57;;;;;;;1.80;0.43;;;;;;;6.80;100.00;98985.66;5005416;28;20194;-53
2021/12/01 07:35:23;;;;;;;0.30;0.30;;;;;;;6.83;100.00;98978.72;5009140;28;20190;-52
2021/12/01 07:37:49;;;;;;;0.60;0.60;;;;;;;6.88;100.00;98976.09;5014267;28;20218;-52
2021/12/01 07:40:16;;;;;;;0.80;0.50;;;;;;;6.93;100.00;98966.59;5009225;28;20243;-51
2021/12/01 07:42:41;;;;;;;0.97;0.60;;;;;;;6.99;100.00;98968.19;5004186;28;20195;-52
2021/12/01 07:45:07;;;;;;;0.50;0.50;;;;;;;7.06;100.00;98969.81;5013333;28;21035;-53
2021/12/01 07:47:33;;;;;;;1.80;0.70;;;;;;;7.13;100.00;98966.25;5010694;28;20218;-51
2021/12/01 07:49:59;;;;;;;1.33;0.60;;;;;;;7.20;100.00;98959.28;5010900;28;20747;-52
2021/12/01 07:52:24;;;;;;;0.60;0.40;;;;;;;7.27;100.00;98966.03;5006090;28;20192;-52
2021/12/01 07:54:50;;;;;;;0.60;0.33;;;;;;;7.33;100.00;98947.91;5008842;28;20261;-54
2021/12/01 07:57:16;;;;;;;0.60;0.40;;;;;;;7.45;100.00;98952.00;5007036;28;20196;-52
2021/12/01 07:59:41;;;;;;;0.40;0.40;;;;;;;7.57;100.00;98940.66;5040878;28;20605;-54
2021/12/01 08:02:07;;;;;;;1.50;0.50;;;;;;;7.67;100.00;98943.91;5016554;28;20221;-53
2021/12/01 08:04:33;;;;;;;0.90;0.50;;;;;;;7.72;100.00;98944.66;5006244;28;20965;-54
2021/12/01 08:06:59;;;;;;;0.33;0.33;;;;;;;7.77;100.00;98936.84;4987225;28;20236;-52
2021/12/01 08:09:26;;;;;;;1.23;0.60;;;;;;;7.80;100.00;98933.38;4994221;28;20607;-52
2021/12/01 08:11:54;;;;;;;0.60;0.43;;;;;;;7.81;100.00;98925.59;5004883;28;20217;-52
2021/12/01 08:14:20;;;;;;;0.50;0.30;;;;;;;7.80;100.00;98918.75;5006506;28;20283;-53
2021/12/01 08:16:46;;;;;;;0.60;0.40;;;;;;;7.83;100.00;98912.69;5004195;28;20592;-52
2021/12/01 08:19:12;;;;;;;0.70;0.53;;;;;;;7.87;100.00;98919.47;5010312;28;20234;-54
2021/12/01 08:21:37;;;;;;;0.83;0.40;;;;;;;7.87;100.00;98904.00;5003378;28;20219;-52
2021/12/01 08:24:03;;;;;;;0.43;0.37;;;;;;;7.82;100.00;98909.25;5024083;28;20272;-53
2021/12/01 08:26:28;;;;;;;1.40;0.50;;;;;;;7.87;100.00;98889.41;5001613;28;20222;-52
2021/12/01 08:28:54;;;;;;;0.50;0.40;;;;;;;7.89;100.00;98891.94;4987053;28;20184;-53
2021/12/01 08:31:20;;;;;;;0.73;0.47;;;;;;;7.88;100.00;98885.97;4996291;28;20704;-52
2021/12/01 08:33:47;;;;;;;0.80;0.43;;;;;;;7.91;100.00;98891.06;5006925;28;20227;-52
2021/12/01 08:36:14;;;;;;;0.47;0.40;;;;;;;7.91;100.00;98891.06;4990559;28;20262;-54
2021/12/01 08:38:41;;;;;;;1.47;0.47;;;;;;;7.90;100.00;98876.50;5003381;28;20582;-53
2021/12/01 08:41:07;;;;;;;0.50;0.43;;;;;;;7.91;100.00;98875.59;5004959;28;20535;-52
2021/12/01 08:43:33;;;;;;;0.63;0.53;;;;;;;7.91;100.00;98870.47;5006165;28;20187;-53
2021/12/01 08:46:00;;;;;;;0.60;0.40;;;;;;;7.91;100.00;98865.31;5002541;28;20848;-52
2021/12/01 08:48:26;;;;;;;1.20;0.40;;;;;;;7.92;100.00;98879.00;5007797;28;20195;-52
2021/12/01 08:50:51;;;;;;;1.10;0.30;;;;;;;7.91;100.00;98867.00;5018321;28;20232;-54
2021/12/01 08:53:17;;;;;;;1.17;0.50;;;;;;;7.91;100.00;98872.16;5000885;28;20226;-52
2021/12/01 08:55:42;;;;;;;0.50;0.40;;;;;;;7.92;100.00;98858.41;5018069;28;20191;-53
2021/12/01 08:58:13;;;;;;;1.17;0.40;;;;;;;7.92;100.00;98859.28;5027483;28;20242;-53
2021/12/01 09:00:43;;;;;;;0.97;0.50;;;;;;;7.94;100.00;98846.34;5017479;28;20227;-54
2021/12/01 09:03:10;;;;;;;1.63;0.50;;;;;;;7.96;100.00;98836.88;4995919;28;20205;-53
2021/12/01 09:05:35;;;;;;;1.40;0.60;;;;;;;8.00;100.00;98837.63;5010117;28;20219;-52
2021/12/01 09:08:00;;;;;;;0.93;0.50;;;;;;;8.01;100.00;98826.44;5019253;28;20264;-51
2021/12/01 09:10:26;;;;;;;1.00;0.47;;;;;;;8.02;100.00;98828.97;5008063;28;20313;-52
2021/12/01 09:12:51;;;;;;;1.20;0.57;;;;;;;8.05;100.00;98825.50;5018560;28;20208;-52
2021/12/01 09:15:16;;;;;;;0.63;0.50;;;;;;;8.13;100.00;98821.03;5007528;28;20192;-51
2021/12/01 09:17:42;;;;;;;0.23;0.23;;;;;;;8.15;100.00;98827.00;5028215;28;20208;-53
2021/12/01 09:20:08;;;;;;;3.60;0.40;;;;;;;8.17;100.00;98820.06;5022041;28;20190;-52
2021/12/01 09:22:34;;;;;;;0.73;0.43;;;;;;;8.19;100.00;98825.19;5016058;28;20595;-53
2021/12/01 09:24:59;;;;;;;1.00;0.50;;;;;;;8.20;100.00;98807.13;5009358;28;20188;-51
2021/12/01 09:27:24;;;;;;;1.50;0.53;;;;;;;8.22;100.00;98805.38;5004244;28;20385;-55
2021/12/01 09:29:51;;;;;;;1.13;0.50;;;;;;;8.22;100.00;98800.22;5008711;28;20196;-53
2021/12/01 09:32:17;;;;;;;0.70;0.40;;;;;;;8.25;100.00;98791.56;5028672;28;20225;-52
2021/12/01 09:34:44;;;;;;;1.90;0.70;;;;;;;8.28;100.00;98798.34;5017227;28;20194;-52
2021/12/01 09:37:10;;;;;;;0.60;0.37;;;;;;;8.29;100.00;98797.47;5008957;28;20235;-55
2021/12/01 09:39:35;;;;;;;0.43;0.40;;;;;;;8.27;100.00;98779.47;5004598;28;20608;-53
2021/12/01 09:42:01;;;;;;;1.03;0.50;;;;;;;8.32;100.00;98785.34;5017658;28;20302;-54
2021/12/01 09:44:27;;;;;;;2.70;0.70;;;;;;;8.36;100.00;98784.41;4991204;28;20286;-54
2021/12/01 09:46:53;;;;;;;1.07;0.50;;;;;;;8.37;100.00;98773.22;5030716;28;20218;-53
2021/12/01 09:49:18;;;;;;;1.83;0.60;;;;;;;8.40;100.00;98777.44;5003268;28;20193;-55
2021/12/01 09:51:44;;;;;;;1.60;0.47;;;;;;;8.45;100.00;98762.72;5012142;28;20202;-54
2021/12/01 09:54:10;;;;;;;0.50;0.30;;;;;;;8.44;100.00;98760.19;5020819;28;20248;-54
2021/12/01 09:56:35;;;;;;;2.20;0.50;;;;;;;8.45;100.00;98756.72;5019606;28;20211;-53
2021/12/01 09:59:01;;;;;;;1.27;0.53;;;;;;;8.50;100.00;98742.84;5008630;28;20221;-53
2021/12/01 10:01:28;;;;;;;1.33;0.70;;;;;;;8.63;100.00;98742.53;5001257;28;20199;-53
2021/12/01 10:03:54;;;;;;;1.20;0.50;;;;;;;8.77;100.00;98739.63;5014847;28;20691;-53
2021/12/01 10:06:22;;;;;;;0.63;0.47;;;;;;;8.93;100.00;98740.88;5015395;28;20306;-51
2021/12/01 10:09:04;;;;;;;1.13;0.40;;;;;;;9.03;100.00;98725.97;5010457;28;20212;-54
2021/12/01 10:11:32;;;;;;;1.10;0.60;;;;;;;9.11;100.00;98731.78;4999710;28;20636;-52
2021/12/01 10:14:16;;;;;;;1.77;0.37;;;;;;;9.13;100.00;98722.28;5009007;28;20769;-52
2021/12/01 10:16:43;;;;;;;1.60;0.50;;;;;;;9.08;100.00;98718.97;5004942;28;20618;-53
2021/12/01 10:19:10;;;;;;;0.30;0.30;;;;;;;9.04;100.00;98717.34;5100000;27;20195;-52
2021/12/01 10:21:39;;;;;;;0.60;0.50;;;;;;;9.00;100.00;98700.25;4994097;28;20205;-53
2021/12/01 10:24:15;;;;;;;0.40;0.30;;;;;;;8.98;100.00;98699.47;4997482;28;20196;-54
2021/12/01 10:26:43;;;;;;;0.80;0.40;;;;;;;8.93;100.00;98680.69;4997728;28;20699;-53
2021/12/01 10:29:12;;;;;;;1.20;0.50;;;;;;;8.90;100.00;98681.63;5001479;28;20558;-54
2021/12/01 10:31:39;;;;;;;1.07;0.67;;;;;;;8.83;100.00;98662.91;5003644;28;20245;-52
2021/12/01 10:34:28;;;;;;;1.27;0.57;;;;;;;8.78;100.00;98653.56;4999615;28;20582;-53
2021/12/01 10:37:15;;;;;;;0.97;0.50;;;;;;;8.74;100.00;98652.81;5002485;28;20581;-54
2021/12/01 10:39:44;;;;;;;0.77;0.37;;;;;;;8.74;100.00;98652.00;4999589;28;20951;-53
2021/12/01 10:42:14;;;;;;;1.40;0.67;;;;;;;8.75;100.00;98651.94;4994575;28;20219;-55
2021/12/01 10:44:55;;;;;;;0.40;0.40;;;;;;;8.80;100.00;98654.38;5002289;28;20192;-53
2021/12/01 10:47:21;;;;;;;0.50;0.40;;;;;;;8.79;100.00;98647.53;4996877;28;20730;-53
2021/12/01 10:49:47;;;;;;;0.93;0.50;;;;;;;8.81;100.00;98644.03;5004115;28;20506;-52
2021/12/01 10:52:35;;;;;;;0.60;0.50;;;;;;;8.83;100.00;98636.25;4996774;28;21156;-53
2021/12/01 10:55:07;;;;;;;1.10;0.60;;;;;;;8.83;100.00;98634.53;4999477;28;20275;-51
2021/12/01 10:57:38;;;;;;;0.87;0.60;;;;;;;8.88;100.00;98633.53;4997314;28;20744;-54
2021/12/01 11:00:12;;;;;;;1.10;0.60;;;;;;;8.80;100.00;98626.88;5012030;28;20195;-56
2021/12/01 11:02:37;;;;;;;1.70;0.77;;;;;;;8.78;100.00;98623.50;4999055;28;20856;-54
2021/12/01 11:05:03;;;;;;;1.50;0.93;;;;;;;8.75;100.00;98615.00;5001917;28;20195;-51
2021/12/01 11:07:33;;;;;;;0.60;0.60;;;;;;;8.71;100.00;98611.63;5008504;28;20297;-52
2021/12/01 11:10:18;;;;;;;1.13;0.60;;;;;;;8.69;100.00;98596.22;5002549;28;20188;-51
2021/12/01 11:12:57;;;;;;;1.07;0.77;;;;;;;8.69;100.00;98603.13;5014337;28;20560;-53
2021/12/01 11:15:30;;;;;;;1.37;0.70;;;;;;;8.69;100.00;98591.06;5010153;28;20274;-54
2021/12/01 11:17:58;;;;;;;1.70;0.70;;;;;;;8.69;100.00;98587.66;4995641;28;20215;-53
2021/12/01 11:20:30;;;;;;;0.93;0.63;;;;;;;8.68;100.00;98584.22;4992482;28;20810;-54
2021/12/01 11:23:07;;;;;;;0.60;0.50;;;;;;;8.68;100.00;98573.91;4996607;28;20656;-54
2021/12/01 11:25:35;;;;;;;1.40;0.50;;;;;;;8.68;100.00;98578.22;4995990;28;20215;-54
2021/12/01 11:28:01;;;;;;;2.93;0.73;;;;;;;8.73;100.00;98566.03;4997395;28;20215;-57
2021/12/01 11:30:26;;;;;;;1.47;0.90;;;;;;;8.74;100.00;98562.56;4994701;28;20188;-54
2021/12/01 11:32:52;;;;;;;0.93;0.63;;;;;;;8.77;100.00;98565.03;4995241;28;20193;-53
2021/12/01 11:35:17;;;;;;;0.87;0.60;;;;;;;8.77;100.00;98553.91;4996966;28;20197;-52
2021/12/01 11:37:43;;;;;;;0.90;0.60;;;;;;;8.78;100.00;98546.09;4992739;28;20240;-54